sensor_id;sensor_type;location;lat;lon;timestamp;temperature;humidity
5041;DHT22;2539;52.568;13.364;2024-03-02T00:00:20;7.70;99.90
5041;DHT22;2539;52.568;13.364;2024-03-02T00:02:49;7.70;99.90
5041;DHT22;2539;52.568;13.364;2024-03-02T00:05:20;7.70;99.90
5041;DHT22;2539;52.568;13.364;2024-03-02T00:07:55;7.80;99.90
5041;DHT22;2539;52.568;13.364;2024-03-02T00:10:25;7.80;99.90
5041;DHT22;2539;52.568;13.364;2024-03-02T00:12:56;7.90;99.90
5041;DHT22;2539;52.568;13.364;2024-03-02T00:15:46;7.90;99.90
5041;DHT22;2539;52.568;13.364;2024-03-02T00:18:23;7.90;99.90
5041;DHT22;2539;52.568;13.364;2024-03-02T00:20:56;8.00;99.90
5041;DHT22;2539;52.568;13.364;2024-03-02T00:23:29;7.90;99.90
5041;DHT22;2539;52.568;13.364;2024-03-02T00:25:56;7.90;99.90
5041;DHT22;2539;52.568;13.364;2024-03-02T00:28:35;8.00;99.90
5041;DHT22;2539;52.568;13.364;2024-03-02T00:31:06;7.90;99.90
5041;DHT22;2539;52.568;13.364;2024-03-02T00:33:35;7.90;99.90
5041;DHT22;2539;52.568;13.364;2024-03-02T00:36:03;8.00;99.90
5041;DHT22;2539;52.568;13.364;2024-03-02T00:38:30;8.00;99.90
5041;DHT22;2539;52.568;13.364;2024-03-02T00:41:04;8.10;99.90
5041;DHT22;2539;52.568;13.364;2024-03-02T00:43:43;8.10;99.90
5041;DHT22;2539;52.568;13.364;2024-03-02T00:46:16;8.10;99.90
5041;DHT22;2539;52.568;13.364;2024-03-02T00:48:51;8.10;99.90
5041;DHT22;2539;52.568;13.364;2024-03-02T00:51:18;8.10;99.90
5041;DHT22;2539;52.568;13.364;2024-03-02T00:53:44;8.00;99.90
5041;DHT22;2539;52.568;13.364;2024-03-02T00:56:11;8.00;99.90
5041;DHT22;2539;52.568;13.364;2024-03-02T00:58:38;7.90;99.90
5041;DHT22;2539;52.568;13.364;2024-03-02T01:01:07;7.90;99.90
5041;DHT22;2539;52.568;13.364;2024-03-02T01:03:34;7.90;99.90
5041;DHT22;2539;52.568;13.364;2024-03-02T01:06:04;7.90;99.90
5041;DHT22;2539;52.568;13.364;2024-03-02T01:08:31;8.00;99.90
5041;DHT22;2539;52.568;13.364;2024-03-02T01:10:57;8.00;99.90
5041;DHT22;2539;52.568;13.364;2024-03-02T01:13:23;8.10;99.90
5041;DHT22;2539;52.568;13.364;2024-03-02T01:15:53;8.10;99.90
5041;DHT22;2539;52.568;13.364;2024-03-02T01:18:19;8.20;99.90
5041;DHT22;2539;52.568;13.364;2024-03-02T01:20:50;8.20;99.90
5041;DHT22;2539;52.568;13.364;2024-03-02T01:23:30;8.30;99.90
5041;DHT22;2539;52.568;13.364;2024-03-02T01:25:56;8.30;99.90
5041;DHT22;2539;52.568;13.364;2024-03-02T01:28:25;8.30;99.90
5041;DHT22;2539;52.568;13.364;2024-03-02T01:30:51;8.30;99.90
5041;DHT22;2539;52.568;13.364;2024-03-02T01:33:18;8.30;99.90
5041;DHT22;2539;52.568;13.364;2024-03-02T01:35:45;8.30;99.90
5041;DHT22;2539;52.568;13.364;2024-03-02T01:38:11;8.40;99.90
5041;DHT22;2539;52.568;13.364;2024-03-02T01:40:37;8.30;99.90
5041;DHT22;2539;52.568;13.364;2024-03-02T01:43:04;8.20;99.90
5041;DHT22;2539;52.568;13.364;2024-03-02T01:45:30;8.30;99.90
5041;DHT22;2539;52.568;13.364;2024-03-02T01:47:56;8.30;99.90
5041;DHT22;2539;52.568;13.364;2024-03-02T01:50:33;8.30;99.90
5041;DHT22;2539;52.568;13.364;2024-03-02T01:53:00;8.30;99.90
5041;DHT22;2539;52.568;13.364;2024-03-02T01:55:26;8.00;99.90
5041;DHT22;2539;52.568;13.364;2024-03-02T01:57:55;7.90;99.90
5041;DHT22;2539;52.568;13.364;2024-03-02T02:00:22;7.80;99.90
5041;DHT22;2539;52.568;13.364;2024-03-02T02:02:48;7.70;99.90
5041;DHT22;2539;52.568;13.364;2024-03-02T02:05:17;7.60;99.90
5041;DHT22;2539;52.568;13.364;2024-03-02T02:07:43;7.50;99.90
5041;DHT22;2539;52.568;13.364;2024-03-02T02:10:10;7.50;99.90
5041;DHT22;2539;52.568;13.364;2024-03-02T02:12:37;7.50;99.90
5041;DHT22;2539;52.568;13.364;2024-03-02T02:15:04;7.50;99.90
5041;DHT22;2539;52.568;13.364;2024-03-02T02:17:47;7.60;99.90
5041;DHT22;2539;52.568;13.364;2024-03-02T02:20:13;7.60;99.90
5041;DHT22;2539;52.568;13.364;2024-03-02T02:22:39;7.60;99.90
5041;DHT22;2539;52.568;13.364;2024-03-02T02:25:06;7.60;99.90
5041;DHT22;2539;52.568;13.364;2024-03-02T02:27:32;7.60;99.90
5041;DHT22;2539;52.568;13.364;2024-03-02T02:29:58;7.70;99.90
5041;DHT22;2539;52.568;13.364;2024-03-02T02:32:27;7.70;99.90
5041;DHT22;2539;52.568;13.364;2024-03-02T02:34:53;7.80;99.90
5041;DHT22;2539;52.568;13.364;2024-03-02T02:37:19;7.80;99.90
5041;DHT22;2539;52.568;13.364;2024-03-02T02:39:46;7.80;99.90
5041;DHT22;2539;52.568;13.364;2024-03-02T02:42:12;7.80;99.90
5041;DHT22;2539;52.568;13.364;2024-03-02T02:44:39;7.90;99.90
5041;DHT22;2539;52.568;13.364;2024-03-02T02:47:05;7.90;99.90
5041;DHT22;2539;52.568;13.364;2024-03-02T02:49:31;8.00;99.90
5041;DHT22;2539;52.568;13.364;2024-03-02T02:51:57;8.00;99.90
5041;DHT22;2539;52.568;13.364;2024-03-02T02:54:24;8.10;99.90
5041;DHT22;2539;52.568;13.364;2024-03-02T02:56:50;8.00;99.90
5041;DHT22;2539;52.568;13.364;2024-03-02T02:59:16;8.20;99.90
5041;DHT22;2539;52.568;13.364;2024-03-02T03:01:43;8.20;99.90
5041;DHT22;2539;52.568;13.364;2024-03-02T03:04:09;8.20;99.90
5041;DHT22;2539;52.568;13.364;2024-03-02T03:06:35;8.20;99.90
5041;DHT22;2539;52.568;13.364;2024-03-02T03:09:01;8.20;99.90
5041;DHT22;2539;52.568;13.364;2024-03-02T03:11:28;8.20;99.90
5041;DHT22;2539;52.568;13.364;2024-03-02T03:13:54;8.20;99.90
5041;DHT22;2539;52.568;13.364;2024-03-02T03:16:20;8.20;99.90
5041;DHT22;2539;52.568;13.364;2024-03-02T03:18:47;8.20;99.90
5041;DHT22;2539;52.568;13.364;2024-03-02T03:21:12;8.30;99.90
5041;DHT22;2539;52.568;13.364;2024-03-02T03:23:38;8.30;99.90
5041;DHT22;2539;52.568;13.364;2024-03-02T03:26:04;8.30;99.90
5041;DHT22;2539;52.568;13.364;2024-03-02T03:28:30;8.40;99.90
5041;DHT22;2539;52.568;13.364;2024-03-02T03:30:56;8.40;99.90
5041;DHT22;2539;52.568;13.364;2024-03-02T03:33:22;8.40;99.90
5041;DHT22;2539;52.568;13.364;2024-03-02T03:35:48;8.50;99.90
5041;DHT22;2539;52.568;13.364;2024-03-02T03:38:15;8.50;99.90
5041;DHT22;2539;52.568;13.364;2024-03-02T03:40:41;8.60;99.90
5041;DHT22;2539;52.568;13.364;2024-03-02T03:43:07;8.70;99.90
5041;DHT22;2539;52.568;13.364;2024-03-02T03:45:34;8.70;99.90
5041;DHT22;2539;52.568;13.364;2024-03-02T03:48:01;8.80;99.90
5041;DHT22;2539;52.568;13.364;2024-03-02T03:50:27;8.90;99.90
5041;DHT22;2539;52.568;13.364;2024-03-02T03:52:54;8.90;99.90
5041;DHT22;2539;52.568;13.364;2024-03-02T03:55:20;8.90;99.90
5041;DHT22;2539;52.568;13.364;2024-03-02T03:57:46;8.90;99.90
5041;DHT22;2539;52.568;13.364;2024-03-02T04:00:13;8.90;99.90
5041;DHT22;2539;52.568;13.364;2024-03-02T04:02:39;9.00;99.90
5041;DHT22;2539;52.568;13.364;2024-03-02T04:05:06;9.00;99.90
5041;DHT22;2539;52.568;13.364;2024-03-02T04:07:36;9.00;99.90
5041;DHT22;2539;52.568;13.364;2024-03-02T04:10:10;9.00;99.90
5041;DHT22;2539;52.568;13.364;2024-03-02T04:12:36;9.00;99.90
5041;DHT22;2539;52.568;13.364;2024-03-02T04:15:07;9.10;99.90
5041;DHT22;2539;52.568;13.364;2024-03-02T04:17:33;9.10;99.90
5041;DHT22;2539;52.568;13.364;2024-03-02T04:20:00;9.10;99.90
5041;DHT22;2539;52.568;13.364;2024-03-02T04:22:27;9.10;99.90
5041;DHT22;2539;52.568;13.364;2024-03-02T04:24:54;9.10;99.90
5041;DHT22;2539;52.568;13.364;2024-03-02T04:27:20;9.20;99.90
5041;DHT22;2539;52.568;13.364;2024-03-02T04:29:46;9.20;99.90
5041;DHT22;2539;52.568;13.364;2024-03-02T04:32:13;9.20;99.90
5041;DHT22;2539;52.568;13.364;2024-03-02T04:34:39;9.20;99.90
5041;DHT22;2539;52.568;13.364;2024-03-02T04:37:05;9.20;99.90
5041;DHT22;2539;52.568;13.364;2024-03-02T04:39:32;9.20;99.90
5041;DHT22;2539;52.568;13.364;2024-03-02T04:42:00;9.20;99.90
5041;DHT22;2539;52.568;13.364;2024-03-02T04:44:26;9.20;99.90
5041;DHT22;2539;52.568;13.364;2024-03-02T04:46:52;9.20;99.90
5041;DHT22;2539;52.568;13.364;2024-03-02T04:49:18;9.20;99.90
5041;DHT22;2539;52.568;13.364;2024-03-02T04:51:45;9.20;99.90
5041;DHT22;2539;52.568;13.364;2024-03-02T04:54:11;9.20;99.90
5041;DHT22;2539;52.568;13.364;2024-03-02T04:56:40;9.20;99.90
5041;DHT22;2539;52.568;13.364;2024-03-02T04:59:10;9.20;99.90
5041;DHT22;2539;52.568;13.364;2024-03-02T05:01:37;9.20;99.90
5041;DHT22;2539;52.568;13.364;2024-03-02T05:04:03;9.20;99.90
5041;DHT22;2539;52.568;13.364;2024-03-02T05:06:29;9.20;99.90
5041;DHT22;2539;52.568;13.364;2024-03-02T05:08:56;9.20;99.90
5041;DHT22;2539;52.568;13.364;2024-03-02T05:11:22;9.20;99.90
5041;DHT22;2539;52.568;13.364;2024-03-02T05:14:05;9.20;99.90
5041;DHT22;2539;52.568;13.364;2024-03-02T05:16:35;9.30;99.90
5041;DHT22;2539;52.568;13.364;2024-03-02T05:19:03;9.30;99.90
5041;DHT22;2539;52.568;13.364;2024-03-02T05:21:29;9.30;99.90
5041;DHT22;2539;52.568;13.364;2024-03-02T05:23:55;9.30;99.90
5041;DHT22;2539;52.568;13.364;2024-03-02T05:26:21;9.30;99.90
5041;DHT22;2539;52.568;13.364;2024-03-02T05:28:49;9.30;99.90
5041;DHT22;2539;52.568;13.364;2024-03-02T05:31:16;9.30;99.90
5041;DHT22;2539;52.568;13.364;2024-03-02T05:33:43;9.20;99.90
5041;DHT22;2539;52.568;13.364;2024-03-02T05:36:09;9.10;99.90
5041;DHT22;2539;52.568;13.364;2024-03-02T05:38:35;9.30;99.90
5041;DHT22;2539;52.568;13.364;2024-03-02T05:41:02;9.30;99.90
5041;DHT22;2539;52.568;13.364;2024-03-02T05:43:28;9.30;99.90
5041;DHT22;2539;52.568;13.364;2024-03-02T05:45:55;9.30;99.90
5041;DHT22;2539;52.568;13.364;2024-03-02T05:48:21;9.30;99.90
5041;DHT22;2539;52.568;13.364;2024-03-02T05:50:47;9.20;99.90
5041;DHT22;2539;52.568;13.364;2024-03-02T05:53:13;9.20;99.90
5041;DHT22;2539;52.568;13.364;2024-03-02T05:55:41;9.20;99.90
5041;DHT22;2539;52.568;13.364;2024-03-02T05:58:07;9.20;99.90
5041;DHT22;2539;52.568;13.364;2024-03-02T06:01:03;9.20;99.90
5041;DHT22;2539;52.568;13.364;2024-03-02T06:03:30;9.20;99.90
5041;DHT22;2539;52.568;13.364;2024-03-02T06:05:57;9.20;99.90
5041;DHT22;2539;52.568;13.364;2024-03-02T06:08:23;9.20;99.90
5041;DHT22;2539;52.568;13.364;2024-03-02T06:10:49;9.10;99.90
5041;DHT22;2539;52.568;13.364;2024-03-02T06:13:15;9.10;99.90
5041;DHT22;2539;52.568;13.364;2024-03-02T06:15:42;9.10;99.90
5041;DHT22;2539;52.568;13.364;2024-03-02T06:18:08;9.00;99.90
5041;DHT22;2539;52.568;13.364;2024-03-02T06:20:35;9.10;99.90
5041;DHT22;2539;52.568;13.364;2024-03-02T06:23:01;9.10;99.90
5041;DHT22;2539;52.568;13.364;2024-03-02T06:25:27;9.10;99.90
5041;DHT22;2539;52.568;13.364;2024-03-02T06:27:54;9.10;99.90
5041;DHT22;2539;52.568;13.364;2024-03-02T06:30:20;9.10;99.90
5041;DHT22;2539;52.568;13.364;2024-03-02T06:32:46;9.10;99.90
5041;DHT22;2539;52.568;13.364;2024-03-02T06:37:48;9.20;99.90
5041;DHT22;2539;52.568;13.364;2024-03-02T06:40:14;9.20;99.90
5041;DHT22;2539;52.568;13.364;2024-03-02T06:42:40;9.30;99.90
5041;DHT22;2539;52.568;13.364;2024-03-02T06:45:06;9.20;99.90
5041;DHT22;2539;52.568;13.364;2024-03-02T06:47:33;9.20;99.90
5041;DHT22;2539;52.568;13.364;2024-03-02T06:49:59;9.00;99.90
5041;DHT22;2539;52.568;13.364;2024-03-02T06:52:25;9.00;99.90
5041;DHT22;2539;52.568;13.364;2024-03-02T06:54:52;9.00;99.90
5041;DHT22;2539;52.568;13.364;2024-03-02T06:57:18;9.00;99.90
5041;DHT22;2539;52.568;13.364;2024-03-02T06:59:46;9.00;99.90
5041;DHT22;2539;52.568;13.364;2024-03-02T07:02:12;9.10;99.90
5041;DHT22;2539;52.568;13.364;2024-03-02T07:04:38;9.10;99.90
5041;DHT22;2539;52.568;13.364;2024-03-02T07:07:04;9.20;99.90
5041;DHT22;2539;52.568;13.364;2024-03-02T07:09:31;9.30;99.90
5041;DHT22;2539;52.568;13.364;2024-03-02T07:11:57;9.30;99.90
5041;DHT22;2539;52.568;13.364;2024-03-02T07:14:24;9.30;99.90
5041;DHT22;2539;52.568;13.364;2024-03-02T07:17:12;9.40;99.90
5041;DHT22;2539;52.568;13.364;2024-03-02T07:19:38;9.40;99.90
5041;DHT22;2539;52.568;13.364;2024-03-02T07:22:07;9.40;99.90
5041;DHT22;2539;52.568;13.364;2024-03-02T07:24:41;9.50;99.90
5041;DHT22;2539;52.568;13.364;2024-03-02T07:27:12;9.50;99.90
5041;DHT22;2539;52.568;13.364;2024-03-02T07:29:39;9.60;99.90
5041;DHT22;2539;52.568;13.364;2024-03-02T07:32:06;9.70;99.90
5041;DHT22;2539;52.568;13.364;2024-03-02T07:34:33;9.50;99.90
5041;DHT22;2539;52.568;13.364;2024-03-02T07:36:59;9.80;99.90
5041;DHT22;2539;52.568;13.364;2024-03-02T07:39:26;9.80;99.90
5041;DHT22;2539;52.568;13.364;2024-03-02T07:41:52;9.90;99.90
5041;DHT22;2539;52.568;13.364;2024-03-02T07:44:19;9.90;99.90
5041;DHT22;2539;52.568;13.364;2024-03-02T07:46:46;9.90;99.90
5041;DHT22;2539;52.568;13.364;2024-03-02T07:49:13;10.00;99.90
5041;DHT22;2539;52.568;13.364;2024-03-02T07:51:42;10.10;99.90
5041;DHT22;2539;52.568;13.364;2024-03-02T07:54:09;10.10;99.90
5041;DHT22;2539;52.568;13.364;2024-03-02T07:56:35;10.10;99.90
5041;DHT22;2539;52.568;13.364;2024-03-02T07:59:02;10.10;99.90
5041;DHT22;2539;52.568;13.364;2024-03-02T08:01:31;10.10;99.90
5041;DHT22;2539;52.568;13.364;2024-03-02T08:04:01;10.20;99.90
5041;DHT22;2539;52.568;13.364;2024-03-02T08:06:29;10.20;99.90
5041;DHT22;2539;52.568;13.364;2024-03-02T08:08:56;10.20;99.90
5041;DHT22;2539;52.568;13.364;2024-03-02T08:11:23;10.10;99.90
5041;DHT22;2539;52.568;13.364;2024-03-02T08:13:50;11.00;99.90
5041;DHT22;2539;52.568;13.364;2024-03-02T08:16:16;10.20;99.90
5041;DHT22;2539;52.568;13.364;2024-03-02T08:18:49;10.30;99.90
5041;DHT22;2539;52.568;13.364;2024-03-02T08:21:16;10.40;99.90
5041;DHT22;2539;52.568;13.364;2024-03-02T08:23:43;10.40;99.90
5041;DHT22;2539;52.568;13.364;2024-03-02T08:26:10;10.40;99.90
5041;DHT22;2539;52.568;13.364;2024-03-02T08:28:36;10.40;99.90
5041;DHT22;2539;52.568;13.364;2024-03-02T08:31:09;10.50;99.90
5041;DHT22;2539;52.568;13.364;2024-03-02T08:33:35;10.40;99.90
5041;DHT22;2539;52.568;13.364;2024-03-02T08:36:02;10.40;99.90
5041;DHT22;2539;52.568;13.364;2024-03-02T08:38:28;10.40;99.90
5041;DHT22;2539;52.568;13.364;2024-03-02T08:40:54;10.40;99.90
5041;DHT22;2539;52.568;13.364;2024-03-02T08:43:20;10.30;99.90
5041;DHT22;2539;52.568;13.364;2024-03-02T08:45:46;10.30;99.90
5041;DHT22;2539;52.568;13.364;2024-03-02T08:48:12;10.40;99.90
5041;DHT22;2539;52.568;13.364;2024-03-02T08:50:39;10.50;99.90
5041;DHT22;2539;52.568;13.364;2024-03-02T08:53:05;10.60;99.90
5041;DHT22;2539;52.568;13.364;2024-03-02T08:55:31;10.60;99.90
5041;DHT22;2539;52.568;13.364;2024-03-02T08:57:58;10.60;99.90
5041;DHT22;2539;52.568;13.364;2024-03-02T09:00:25;10.70;99.90
5041;DHT22;2539;52.568;13.364;2024-03-02T09:02:51;10.70;99.90
5041;DHT22;2539;52.568;13.364;2024-03-02T09:05:17;10.60;99.90
5041;DHT22;2539;52.568;13.364;2024-03-02T09:07:44;10.50;99.90
5041;DHT22;2539;52.568;13.364;2024-03-02T09:10:10;10.40;99.90
5041;DHT22;2539;52.568;13.364;2024-03-02T09:12:37;10.40;99.90
5041;DHT22;2539;52.568;13.364;2024-03-02T09:15:04;10.40;99.90
5041;DHT22;2539;52.568;13.364;2024-03-02T09:17:32;10.40;99.90
5041;DHT22;2539;52.568;13.364;2024-03-02T09:19:58;10.40;99.90
5041;DHT22;2539;52.568;13.364;2024-03-02T09:22:24;10.40;99.90
5041;DHT22;2539;52.568;13.364;2024-03-02T09:24:51;10.40;99.90
5041;DHT22;2539;52.568;13.364;2024-03-02T09:27:17;10.40;99.90
5041;DHT22;2539;52.568;13.364;2024-03-02T09:29:43;10.50;99.90
5041;DHT22;2539;52.568;13.364;2024-03-02T09:32:13;10.50;99.90
5041;DHT22;2539;52.568;13.364;2024-03-02T09:34:40;10.60;99.90
5041;DHT22;2539;52.568;13.364;2024-03-02T09:37:06;10.60;99.90
5041;DHT22;2539;52.568;13.364;2024-03-02T09:39:32;10.70;99.90
5041;DHT22;2539;52.568;13.364;2024-03-02T09:41:58;10.80;99.90
5041;DHT22;2539;52.568;13.364;2024-03-02T09:44:25;11.00;99.90
5041;DHT22;2539;52.568;13.364;2024-03-02T09:46:52;11.20;99.90
5041;DHT22;2539;52.568;13.364;2024-03-02T09:49:19;11.40;99.90
5041;DHT22;2539;52.568;13.364;2024-03-02T09:51:48;11.50;99.90
5041;DHT22;2539;52.568;13.364;2024-03-02T09:54:16;11.60;99.90
5041;DHT22;2539;52.568;13.364;2024-03-02T09:56:41;11.80;99.90
5041;DHT22;2539;52.568;13.364;2024-03-02T09:59:07;12.10;99.90
5041;DHT22;2539;52.568;13.364;2024-03-02T10:01:33;12.30;99.90
5041;DHT22;2539;52.568;13.364;2024-03-02T10:04:00;12.40;99.90
5041;DHT22;2539;52.568;13.364;2024-03-02T10:06:28;12.40;99.90
5041;DHT22;2539;52.568;13.364;2024-03-02T10:08:55;12.50;99.90
5041;DHT22;2539;52.568;13.364;2024-03-02T10:11:33;12.50;99.90
5041;DHT22;2539;52.568;13.364;2024-03-02T10:14:13;12.60;99.90
5041;DHT22;2539;52.568;13.364;2024-03-02T10:16:41;12.60;99.90
5041;DHT22;2539;52.568;13.364;2024-03-02T10:19:21;12.80;99.90
5041;DHT22;2539;52.568;13.364;2024-03-02T10:21:49;12.80;99.90
5041;DHT22;2539;52.568;13.364;2024-03-02T10:24:16;13.00;99.90
5041;DHT22;2539;52.568;13.364;2024-03-02T10:26:42;13.20;99.90
5041;DHT22;2539;52.568;13.364;2024-03-02T10:29:10;13.10;99.90
5041;DHT22;2539;52.568;13.364;2024-03-02T10:31:37;13.10;99.90
5041;DHT22;2539;52.568;13.364;2024-03-02T10:34:04;12.90;99.90
5041;DHT22;2539;52.568;13.364;2024-03-02T10:36:32;12.90;99.90
5041;DHT22;2539;52.568;13.364;2024-03-02T10:38:59;12.80;99.90
5041;DHT22;2539;52.568;13.364;2024-03-02T10:41:27;12.90;99.90
5041;DHT22;2539;52.568;13.364;2024-03-02T10:43:53;13.00;99.90
5041;DHT22;2539;52.568;13.364;2024-03-02T10:46:29;13.00;99.90
5041;DHT22;2539;52.568;13.364;2024-03-02T10:48:56;13.00;99.90
5041;DHT22;2539;52.568;13.364;2024-03-02T10:51:26;13.10;99.90
5041;DHT22;2539;52.568;13.364;2024-03-02T10:53:53;13.10;99.90
5041;DHT22;2539;52.568;13.364;2024-03-02T10:56:32;13.20;99.90
5041;DHT22;2539;52.568;13.364;2024-03-02T10:59:40;13.30;99.90
5041;DHT22;2539;52.568;13.364;2024-03-02T11:02:12;13.40;99.90
5041;DHT22;2539;52.568;13.364;2024-03-02T11:04:39;13.40;99.90
5041;DHT22;2539;52.568;13.364;2024-03-02T11:07:08;13.40;99.90
5041;DHT22;2539;52.568;13.364;2024-03-02T11:09:41;13.20;99.90
5041;DHT22;2539;52.568;13.364;2024-03-02T11:12:23;12.80;99.90
5041;DHT22;2539;52.568;13.364;2024-03-02T11:14:52;12.70;99.90
5041;DHT22;2539;52.568;13.364;2024-03-02T11:17:18;12.60;99.90
5041;DHT22;2539;52.568;13.364;2024-03-02T11:19:46;12.50;99.90
5041;DHT22;2539;52.568;13.364;2024-03-02T11:22:14;12.40;99.90
5041;DHT22;2539;52.568;13.364;2024-03-02T11:24:52;12.30;99.90
5041;DHT22;2539;52.568;13.364;2024-03-02T11:32:59;12.40;99.90
5041;DHT22;2539;52.568;13.364;2024-03-02T11:35:26;12.40;99.90
5041;DHT22;2539;52.568;13.364;2024-03-02T11:37:54;12.60;99.90
5041;DHT22;2539;52.568;13.364;2024-03-02T11:40:28;12.80;99.90
5041;DHT22;2539;52.568;13.364;2024-03-02T11:42:54;13.10;99.90
5041;DHT22;2539;52.568;13.364;2024-03-02T11:45:27;13.00;99.90
5041;DHT22;2539;52.568;13.364;2024-03-02T11:47:55;13.40;99.90
5041;DHT22;2539;52.568;13.364;2024-03-02T11:50:31;13.70;99.90
5041;DHT22;2539;52.568;13.364;2024-03-02T11:53:00;13.90;99.90
5041;DHT22;2539;52.568;13.364;2024-03-02T11:55:26;13.90;99.90
5041;DHT22;2539;52.568;13.364;2024-03-02T11:57:53;14.20;99.90
5041;DHT22;2539;52.568;13.364;2024-03-02T12:00:20;14.30;99.90
5041;DHT22;2539;52.568;13.364;2024-03-02T12:02:59;14.40;99.90
5041;DHT22;2539;52.568;13.364;2024-03-02T12:05:26;14.50;99.90
5041;DHT22;2539;52.568;13.364;2024-03-02T12:08:01;14.30;99.90
5041;DHT22;2539;52.568;13.364;2024-03-02T12:10:28;14.20;99.90
5041;DHT22;2539;52.568;13.364;2024-03-02T12:13:06;14.20;99.90
5041;DHT22;2539;52.568;13.364;2024-03-02T12:15:35;14.30;99.90
5041;DHT22;2539;52.568;13.364;2024-03-02T12:18:03;14.30;99.90
5041;DHT22;2539;52.568;13.364;2024-03-02T12:20:31;14.40;99.90
5041;DHT22;2539;52.568;13.364;2024-03-02T12:23:02;14.60;99.90
5041;DHT22;2539;52.568;13.364;2024-03-02T12:25:32;14.70;99.90
5041;DHT22;2539;52.568;13.364;2024-03-02T12:28:01;14.80;99.90
5041;DHT22;2539;52.568;13.364;2024-03-02T12:30:32;14.70;99.90
5041;DHT22;2539;52.568;13.364;2024-03-02T12:33:01;14.70;99.90
5041;DHT22;2539;52.568;13.364;2024-03-02T12:35:28;14.50;99.90
5041;DHT22;2539;52.568;13.364;2024-03-02T12:37:54;14.60;99.90
5041;DHT22;2539;52.568;13.364;2024-03-02T12:40:21;14.60;99.90
5041;DHT22;2539;52.568;13.364;2024-03-02T12:42:49;14.80;99.90
5041;DHT22;2539;52.568;13.364;2024-03-02T12:45:16;15.00;99.90
5041;DHT22;2539;52.568;13.364;2024-03-02T12:47:42;15.20;99.90
5041;DHT22;2539;52.568;13.364;2024-03-02T12:50:09;15.30;99.90
5041;DHT22;2539;52.568;13.364;2024-03-02T12:52:36;15.40;99.90
5041;DHT22;2539;52.568;13.364;2024-03-02T12:55:04;15.30;99.90
5041;DHT22;2539;52.568;13.364;2024-03-02T12:57:32;15.40;99.90
5041;DHT22;2539;52.568;13.364;2024-03-02T13:00:03;15.40;99.90
5041;DHT22;2539;52.568;13.364;2024-03-02T13:02:36;15.40;99.90
5041;DHT22;2539;52.568;13.364;2024-03-02T13:05:07;15.40;99.90
5041;DHT22;2539;52.568;13.364;2024-03-02T13:07:37;15.40;99.90
5041;DHT22;2539;52.568;13.364;2024-03-02T13:10:05;15.40;99.90
5041;DHT22;2539;52.568;13.364;2024-03-02T13:12:32;15.50;99.90
5041;DHT22;2539;52.568;13.364;2024-03-02T13:14:59;15.60;99.90
5041;DHT22;2539;52.568;13.364;2024-03-02T13:17:25;15.50;99.90
5041;DHT22;2539;52.568;13.364;2024-03-02T13:19:56;15.50;99.90
5041;DHT22;2539;52.568;13.364;2024-03-02T13:22:23;15.50;99.90
5041;DHT22;2539;52.568;13.364;2024-03-02T13:24:51;15.40;99.90
5041;DHT22;2539;52.568;13.364;2024-03-02T13:27:18;15.40;99.90
5041;DHT22;2539;52.568;13.364;2024-03-02T13:29:47;15.40;99.90
5041;DHT22;2539;52.568;13.364;2024-03-02T13:32:14;15.30;99.90
5041;DHT22;2539;52.568;13.364;2024-03-02T13:34:42;15.20;99.90
5041;DHT22;2539;52.568;13.364;2024-03-02T13:37:09;15.10;99.90
5041;DHT22;2539;52.568;13.364;2024-03-02T13:39:35;15.10;99.90
5041;DHT22;2539;52.568;13.364;2024-03-02T13:42:11;15.10;99.90
5041;DHT22;2539;52.568;13.364;2024-03-02T13:44:40;15.20;99.90
5041;DHT22;2539;52.568;13.364;2024-03-02T13:47:06;15.20;99.90
5041;DHT22;2539;52.568;13.364;2024-03-02T13:49:32;15.20;99.90
5041;DHT22;2539;52.568;13.364;2024-03-02T13:52:03;15.20;99.90
5041;DHT22;2539;52.568;13.364;2024-03-02T13:54:43;15.30;99.90
5041;DHT22;2539;52.568;13.364;2024-03-02T13:57:10;15.40;99.90
5041;DHT22;2539;52.568;13.364;2024-03-02T13:59:37;15.40;99.90
5041;DHT22;2539;52.568;13.364;2024-03-02T14:02:08;15.30;99.90
5041;DHT22;2539;52.568;13.364;2024-03-02T14:04:35;15.30;99.90
5041;DHT22;2539;52.568;13.364;2024-03-02T14:07:01;15.40;99.90
5041;DHT22;2539;52.568;13.364;2024-03-02T14:09:28;15.40;99.90
5041;DHT22;2539;52.568;13.364;2024-03-02T14:11:55;15.50;99.90
5041;DHT22;2539;52.568;13.364;2024-03-02T14:14:21;15.50;99.90
5041;DHT22;2539;52.568;13.364;2024-03-02T14:16:48;15.30;99.90
5041;DHT22;2539;52.568;13.364;2024-03-02T14:19:15;15.20;99.90
5041;DHT22;2539;52.568;13.364;2024-03-02T14:21:41;15.10;99.90
5041;DHT22;2539;52.568;13.364;2024-03-02T14:24:07;15.10;99.90
5041;DHT22;2539;52.568;13.364;2024-03-02T14:26:34;15.00;99.90
5041;DHT22;2539;52.568;13.364;2024-03-02T14:29:01;15.00;99.90
5041;DHT22;2539;52.568;13.364;2024-03-02T14:31:29;14.90;99.90
5041;DHT22;2539;52.568;13.364;2024-03-02T14:33:56;14.80;99.90
5041;DHT22;2539;52.568;13.364;2024-03-02T14:36:22;14.70;99.90
5041;DHT22;2539;52.568;13.364;2024-03-02T14:38:48;14.50;99.90
5041;DHT22;2539;52.568;13.364;2024-03-02T14:41:15;14.50;99.90
5041;DHT22;2539;52.568;13.364;2024-03-02T14:43:41;14.40;99.90
5041;DHT22;2539;52.568;13.364;2024-03-02T14:46:07;14.40;99.90
5041;DHT22;2539;52.568;13.364;2024-03-02T14:48:37;14.30;99.90
5041;DHT22;2539;52.568;13.364;2024-03-02T14:51:04;14.20;99.90
5041;DHT22;2539;52.568;13.364;2024-03-02T14:53:30;14.20;99.90
5041;DHT22;2539;52.568;13.364;2024-03-02T14:55:57;14.10;99.90
5041;DHT22;2539;52.568;13.364;2024-03-02T14:58:24;14.00;99.90
5041;DHT22;2539;52.568;13.364;2024-03-02T15:00:50;13.90;99.90
5041;DHT22;2539;52.568;13.364;2024-03-02T15:03:16;13.90;99.90
5041;DHT22;2539;52.568;13.364;2024-03-02T15:05:43;13.80;99.90
5041;DHT22;2539;52.568;13.364;2024-03-02T15:08:09;14.50;99.90
5041;DHT22;2539;52.568;13.364;2024-03-02T15:10:35;13.60;99.90
5041;DHT22;2539;52.568;13.364;2024-03-02T15:13:02;13.60;99.90
5041;DHT22;2539;52.568;13.364;2024-03-02T15:15:29;13.60;99.90
5041;DHT22;2539;52.568;13.364;2024-03-02T15:17:55;13.50;99.90
5041;DHT22;2539;52.568;13.364;2024-03-02T15:20:21;13.60;99.90
5041;DHT22;2539;52.568;13.364;2024-03-02T15:22:47;13.50;99.90
5041;DHT22;2539;52.568;13.364;2024-03-02T15:25:14;13.40;99.90
5041;DHT22;2539;52.568;13.364;2024-03-02T15:27:42;13.30;99.90
5041;DHT22;2539;52.568;13.364;2024-03-02T15:30:09;13.30;99.90
5041;DHT22;2539;52.568;13.364;2024-03-02T15:32:35;13.40;99.90
5041;DHT22;2539;52.568;13.364;2024-03-02T15:35:03;13.30;99.90
5041;DHT22;2539;52.568;13.364;2024-03-02T15:37:29;13.40;99.90
5041;DHT22;2539;52.568;13.364;2024-03-02T15:39:56;13.30;99.90
5041;DHT22;2539;52.568;13.364;2024-03-02T15:42:22;13.30;99.90
5041;DHT22;2539;52.568;13.364;2024-03-02T15:44:49;13.30;99.90
5041;DHT22;2539;52.568;13.364;2024-03-02T15:47:16;13.30;99.90
5041;DHT22;2539;52.568;13.364;2024-03-02T15:49:43;13.30;99.90
5041;DHT22;2539;52.568;13.364;2024-03-02T15:52:09;13.30;99.90
5041;DHT22;2539;52.568;13.364;2024-03-02T15:54:35;13.20;99.90
5041;DHT22;2539;52.568;13.364;2024-03-02T15:57:02;13.20;99.90
5041;DHT22;2539;52.568;13.364;2024-03-02T15:59:28;13.30;99.90
5041;DHT22;2539;52.568;13.364;2024-03-02T16:01:54;13.30;99.90
5041;DHT22;2539;52.568;13.364;2024-03-02T16:04:23;13.40;99.90
5041;DHT22;2539;52.568;13.364;2024-03-02T16:06:49;13.40;99.90